Time;durP1;ratioP1;P1;durP2;ratioP2;P2;SDS_P1;SDS_P2;PMS_P1;PMS_P2;Temp;Humidity;BMP_temperature;BMP_pressure;BME280_temperature;BME280_humidity;BME280_pressure;Samples;Min_cycle;Max_cycle;Signal;HPM_P1;HPM_P2
2021/10/18 00:01:34;;;;;;;26.53;22.70;;;10.90;99.90;;;;;;10202924;29;20296;-84
2021/10/18 00:06:37;;;;;;;25.73;20.50;;;10.90;99.90;;;;;;10186741;29;20240;-82
2021/10/18 00:11:40;;;;;;;23.83;18.63;;;10.80;99.90;;;;;;10219952;29;20206;-82
2021/10/18 00:16:42;;;;;;;20.97;18.50;;;10.80;99.90;;;;;;10218645;29;20221;-82
2021/10/18 00:21:44;;;;;;;22.60;18.03;;;10.90;99.90;;;;;;10202707;29;20227;-82
2021/10/18 00:26:48;;;;;;;25.40;20.10;;;10.90;99.90;;;;;;10179687;29;20237;-82
2021/10/18 00:31:50;;;;;;;24.13;18.67;;;11.00;99.90;;;;;;10171089;29;20274;-81
2021/10/18 00:36:52;;;;;;;23.50;20.07;;;11.00;99.90;;;;;;10205828;29;20316;-82
2021/10/18 00:41:58;;;;;;;23.20;19.17;;;11.00;99.90;;;;;;10221035;29;20281;-81
2021/10/18 00:47:01;;;;;;;22.07;17.70;;;11.00;99.90;;;;;;10214712;29;20717;-81
2021/10/18 00:52:03;;;;;;;21.00;18.20;;;11.00;99.90;;;;;;10214506;29;20633;-81
2021/10/18 00:57:07;;;;;;;20.07;18.00;;;11.00;99.90;;;;;;10216491;29;20304;-81
2021/10/18 01:02:10;;;;;;;24.37;19.20;;;11.00;99.90;;;;;;10209366;29;20248;-82
2021/10/18 01:07:12;;;;;;;21.77;17.90;;;11.10;99.90;;;;;;10197770;29;20229;-81
2021/10/18 01:12:16;;;;;;;20.73;18.23;;;11.10;99.90;;;;;;10213833;29;20209;-81
2021/10/18 01:17:18;;;;;;;22.13;18.30;;;11.20;99.90;;;;;;10196823;29;20328;-81
2021/10/18 01:22:22;;;;;;;21.40;18.43;;;11.20;99.90;;;;;;10213213;29;20244;-81
2021/10/18 01:27:24;;;;;;;22.77;19.73;;;11.10;99.90;;;;;;10196200;29;20286;-81
2021/10/18 01:32:26;;;;;;;22.20;18.10;;;11.10;99.90;;;;;;10208095;29;20213;-81
2021/10/18 01:37:30;;;;;;;21.37;18.20;;;11.10;99.90;;;;;;10196387;29;20336;-81
2021/10/18 01:42:32;;;;;;;26.07;21.10;;;11.10;99.90;;;;;;10217387;29;20209;-81
2021/10/18 01:47:34;;;;;;;24.13;20.67;;;11.10;99.90;;;;;;10225026;28;20713;-82
2021/10/18 01:52:39;;;;;;;24.80;19.97;;;11.10;99.90;;;;;;10199055;29;20373;-82
2021/10/18 01:57:41;;;;;;;22.07;19.27;;;11.10;99.90;;;;;;10183800;29;20233;-81
2021/10/18 02:02:44;;;;;;;24.47;20.87;;;11.10;99.90;;;;;;10197833;29;20670;-82
2021/10/18 02:07:47;;;;;;;26.47;21.27;;;11.10;99.90;;;;;;10199384;29;20749;-82
2021/10/18 02:12:51;;;;;;;27.47;21.70;;;11.10;99.90;;;;;;10198672;29;20288;-81
2021/10/18 02:17:53;;;;;;;24.83;20.73;;;11.10;99.90;;;;;;10213089;29;20232;-82
2021/10/18 02:22:56;;;;;;;24.83;20.37;;;11.10;99.90;;;;;;10198325;29;20223;-81
2021/10/18 02:27:58;;;;;;;24.53;19.80;;;11.10;99.90;;;;;;10198978;29;20587;-82
2021/10/18 02:33:00;;;;;;;22.83;19.30;;;11.10;99.90;;;;;;10200351;29;20202;-83
2021/10/18 02:38:04;;;;;;;21.43;18.40;;;11.00;99.90;;;;;;10201872;29;20221;-81
2021/10/18 02:43:06;;;;;;;20.50;17.73;;;10.90;99.90;;;;;;10216267;29;20693;-82
2021/10/18 02:48:09;;;;;;;21.50;17.17;;;10.80;99.90;;;;;;10202115;29;20209;-83
2021/10/18 02:53:12;;;;;;;20.90;17.63;;;10.80;99.90;;;;;;10183453;29;20205;-82
2021/10/18 02:58:14;;;;;;;18.77;16.40;;;10.60;99.90;;;;;;10199557;29;20201;-83
2021/10/18 03:03:17;;;;;;;18.73;16.60;;;10.60;99.90;;;;;;10197966;29;20229;-83
2021/10/18 03:08:21;;;;;;;22.20;17.80;;;10.50;99.90;;;;;;10183010;29;20214;-84
2021/10/18 03:13:23;;;;;;;20.80;17.87;;;10.50;99.90;;;;;;10198749;29;20209;-83
2021/10/18 03:18:25;;;;;;;20.03;16.40;;;10.40;99.90;;;;;;10198307;29;20210;-83
2021/10/18 03:23:28;;;;;;;20.60;18.10;;;10.50;99.90;;;;;;10189625;29;20237;-83
2021/10/18 03:28:31;;;;;;;23.30;18.67;;;10.50;99.90;;;;;;10202212;29;20301;-84
2021/10/18 03:33:35;;;;;;;23.73;19.07;;;10.50;99.90;;;;;;10203161;29;20669;-84
2021/10/18 03:38:38;;;;;;;19.10;16.40;;;10.60;99.90;;;;;;10201301;29;20217;-84
2021/10/18 03:43:40;;;;;;;22.53;18.20;;;10.60;99.90;;;;;;10198405;29;20265;-82
2021/10/18 03:48:42;;;;;;;21.57;18.50;;;10.60;99.90;;;;;;10175279;29;20610;-82
2021/10/18 03:53:46;;;;;;;23.70;18.57;;;10.60;99.90;;;;;;10160388;29;20257;-82
2021/10/18 03:58:48;;;;;;;23.67;19.00;;;10.60;99.90;;;;;;10159446;29;20647;-82
2021/10/18 04:03:50;;;;;;;30.53;24.60;;;10.70;99.90;;;;;;10177313;29;20324;-83
2021/10/18 04:08:54;;;;;;;30.83;24.47;;;10.70;99.90;;;;;;10164232;29;20202;-83
2021/10/18 04:13:56;;;;;;;33.33;24.73;;;10.70;99.90;;;;;;10215451;28;20229;-82
2021/10/18 04:18:58;;;;;;;31.87;24.27;;;10.80;99.90;;;;;;10227393;29;20207;-82
2021/10/18 04:24:02;;;;;;;28.87;22.93;;;10.90;99.90;;;;;;10233438;28;20236;-82
2021/10/18 04:29:06;;;;;;;35.07;24.90;;;11.00;99.90;;;;;;10244135;29;20292;-82
2021/10/18 04:34:08;;;;;;;34.40;25.80;;;11.00;99.90;;;;;;10244799;28;20224;-82
2021/10/18 04:39:12;;;;;;;32.70;23.73;;;11.10;99.90;;;;;;10230625;28;20208;-84
2021/10/18 04:51:03;;;;;;;34.13;24.97;;;11.10;99.90;;;;;;10214937;29;20208;-85
2021/10/18 04:56:07;;;;;;;30.87;23.87;;;11.10;99.90;;;;;;10199338;28;20268;-85
2021/10/18 05:01:09;;;;;;;28.43;22.57;;;11.20;99.90;;;;;;10215235;29;20625;-83
2021/10/18 05:06:12;;;;;;;33.73;24.80;;;11.10;99.90;;;;;;10191122;29;20291;-84
2021/10/18 05:11:15;;;;;;;33.60;25.03;;;11.10;99.90;;;;;;10193067;29;20220;-85
2021/10/18 05:16:17;;;;;;;39.23;25.20;;;11.20;99.90;;;;;;10202607;28;20241;-85
2021/10/18 05:21:19;;;;;;;30.83;22.60;;;11.20;99.90;;;;;;10192778;29;20204;-85
2021/10/18 05:26:25;;;;;;;37.50;27.33;;;11.10;99.90;;;;;;10224870;28;20295;-85
2021/10/18 05:31:27;;;;;;;36.13;26.47;;;11.20;99.90;;;;;;10210041;28;20259;-85
2021/10/18 05:36:30;;;;;;;36.37;25.97;;;11.20;99.90;;;;;;10177123;29;20320;-85
2021/10/18 05:41:34;;;;;;;39.20;28.17;;;11.20;99.90;;;;;;10186584;29;20206;-85
2021/10/18 05:46:37;;;;;;;33.67;24.43;;;11.30;99.90;;;;;;10199690;29;20533;-85
2021/10/18 05:51:39;;;;;;;33.63;25.50;;;11.30;99.90;;;;;;10175105;29;20426;-85
2021/10/18 05:56:44;;;;;;;29.77;23.90;;;11.30;99.90;;;;;;10185793;29;20224;-85
2021/10/18 06:01:47;;;;;;;30.47;24.50;;;11.30;99.90;;;;;;10241154;28;20304;-85
2021/10/18 06:06:49;;;;;;;30.60;22.47;;;11.40;99.90;;;;;;10193859;29;20225;-85
2021/10/18 06:11:53;;;;;;;33.87;26.60;;;11.40;99.90;;;;;;10180847;29;20209;-85
2021/10/18 06:16:55;;;;;;;34.20;24.80;;;11.40;99.90;;;;;;10193103;29;20233;-85
2021/10/18 06:21:58;;;;;;;28.47;22.60;;;11.50;99.90;;;;;;10178426;29;20230;-85
2021/10/18 06:34:20;;;;;;;27.80;22.57;;;11.60;99.90;;;;;;9899327;29;20687;-85
2021/10/18 06:39:23;;;;;;;28.00;22.80;;;11.60;99.90;;;;;;10165035;29;20277;-85
2021/10/18 06:44:25;;;;;;;31.17;23.20;;;11.70;99.90;;;;;;10176978;29;20288;-85
2021/10/18 06:49:29;;;;;;;29.00;23.47;;;11.70;99.90;;;;;;10177148;29;20205;-85
2021/10/18 06:54:40;;;;;;;27.70;22.27;;;11.70;99.90;;;;;;10192428;29;20656;-85
2021/10/18 06:59:42;;;;;;;27.60;21.70;;;11.70;99.90;;;;;;10192881;29;20224;-85
2021/10/18 07:04:46;;;;;;;27.90;21.97;;;11.70;99.90;;;;;;10214004;29;20672;-85
2021/10/18 07:09:48;;;;;;;27.43;21.37;;;11.80;99.90;;;;;;10184762;29;20209;-85
2021/10/18 07:14:51;;;;;;;22.70;20.13;;;11.80;99.90;;;;;;10200178;29;20224;-85
2021/10/18 07:19:55;;;;;;;23.57;20.63;;;11.90;99.90;;;;;;10184725;29;20228;-85
2021/10/18 07:24:57;;;;;;;23.27;20.30;;;12.10;99.90;;;;;;10201104;29;20232;-85
2021/10/18 07:29:59;;;;;;;23.83;21.10;;;12.10;99.90;;;;;;10184610;29;20280;-85
2021/10/18 07:35:03;;;;;;;24.17;21.63;;;12.10;99.90;;;;;;10184545;29;20222;-85
2021/10/18 07:40:09;;;;;;;25.00;21.77;;;12.20;99.90;;;;;;10194343;29;20236;-85
2021/10/18 07:45:12;;;;;;;33.80;23.60;;;12.20;99.90;;;;;;10200022;29;20320;-85
2021/10/18 07:50:16;;;;;;;25.57;21.83;;;12.30;99.90;;;;;;10199452;29;20220;-85
2021/10/18 07:55:19;;;;;;;28.30;22.03;;;12.30;99.90;;;;;;10220720;29;20214;-85
2021/10/18 08:00:22;;;;;;;26.10;23.30;;;12.30;99.90;;;;;;10201516;29;20212;-86
2021/10/18 08:05:26;;;;;;;22.80;20.43;;;12.30;99.90;;;;;;10217912;29;20288;-86
2021/10/18 08:10:28;;;;;;;26.03;22.60;;;12.30;99.90;;;;;;10199897;29;20277;-84
2021/10/18 08:15:31;;;;;;;24.10;21.43;;;12.40;99.90;;;;;;10180483;29;20233;-84
2021/10/18 08:20:35;;;;;;;24.37;20.90;;;12.30;99.90;;;;;;10182068;29;20209;-84
2021/10/18 08:25:41;;;;;;;25.57;22.10;;;12.40;99.90;;;;;;10182271;29;20428;-84
2021/10/18 08:30:44;;;;;;;23.20;20.80;;;12.40;99.90;;;;;;10179676;29;20304;-84
2021/10/18 08:35:47;;;;;;;25.77;23.07;;;12.30;99.90;;;;;;10178833;29;20225;-84
2021/10/18 08:41:01;;;;;;;25.37;22.67;;;12.40;99.90;;;;;;10179395;29;20205;-84
2021/10/18 08:46:03;;;;;;;24.90;22.20;;;12.50;99.90;;;;;;10179229;29;20669;-84
2021/10/18 08:51:10;;;;;;;27.20;24.27;;;12.50;99.90;;;;;;10195829;29;20666;-84
2021/10/18 08:56:13;;;;;;;27.63;24.73;;;12.50;99.90;;;;;;10195022;29;20308;-84
2021/10/18 09:01:44;;;;;;;27.67;24.67;;;12.50;99.90;;;;;;10196081;29;20253;-84
2021/10/18 09:06:49;;;;;;;25.87;23.17;;;12.50;99.90;;;;;;10202225;29;20225;-84
2021/10/18 09:11:52;;;;;;;27.93;24.33;;;12.60;99.90;;;;;;10211872;29;20211;-84
2021/10/18 09:17:00;;;;;;;26.27;23.53;;;12.70;99.90;;;;;;10207584;29;20773;-85
2021/10/18 09:22:05;;;;;;;27.20;23.40;;;12.70;99.90;;;;;;10196996;29;20559;-85
2021/10/18 09:27:09;;;;;;;26.10;22.60;;;12.80;99.90;;;;;;10180449;29;20229;-84
2021/10/18 09:32:17;;;;;;;28.03;23.20;;;12.90;99.90;;;;;;10196076;29;20229;-84
2021/10/18 09:37:20;;;;;;;28.60;23.80;;;12.90;99.90;;;;;;10196313;29;20356;-84
2021/10/18 09:42:23;;;;;;;28.93;26.00;;;12.90;99.90;;;;;;10196633;29;20207;-84
2021/10/18 09:48:01;;;;;;;29.60;24.10;;;13.00;99.90;;;;;;10180094;29;20229;-84
2021/10/18 10:52:11;;;;;;;24.73;22.07;;;13.30;99.90;;;;;;10204616;29;20193;-85
2021/10/18 10:57:30;;;;;;;24.93;22.33;;;13.30;99.90;;;;;;10192220;29;20269;-86
2021/10/18 11:02:34;;;;;;;24.03;21.60;;;13.30;99.90;;;;;;10217885;29;20579;-86
2021/10/18 11:07:55;;;;;;;22.00;19.73;;;13.20;99.90;;;;;;10182474;29;20240;-86
2021/10/18 11:13:08;;;;;;;23.23;20.90;;;13.20;99.90;;;;;;10215341;29;20292;-83
2021/10/18 11:18:12;;;;;;;23.17;20.73;;;13.20;99.90;;;;;;10218689;29;20240;-83
2021/10/18 11:23:16;;;;;;;22.27;20.07;;;13.20;99.90;;;;;;10201669;29;20193;-83
2021/10/18 11:28:23;;;;;;;22.43;20.23;;;13.10;99.90;;;;;;10184994;29;20659;-83
2021/10/18 11:33:27;;;;;;;23.03;20.73;;;13.00;99.90;;;;;;10181640;29;20489;-83
2021/10/18 11:38:33;;;;;;;23.63;21.17;;;13.00;99.90;;;;;;10182246;29;20216;-85
2021/10/18 11:43:37;;;;;;;22.67;20.37;;;12.90;99.90;;;;;;10181968;29;20212;-86
2021/10/18 11:48:39;;;;;;;23.40;21.00;;;12.90;99.90;;;;;;10201352;29;20229;-86
2021/10/18 11:53:44;;;;;;;20.40;18.30;;;13.00;99.90;;;;;;10191283;29;20219;-83
2021/10/18 11:58:50;;;;;;;25.03;22.43;;;13.00;99.90;;;;;;10196301;29;20205;-83
2021/10/18 12:03:59;;;;;;;26.07;23.43;;;13.00;99.90;;;;;;10229171;29;20459;-83
2021/10/18 12:09:04;;;;;;;24.70;22.20;;;13.00;99.90;;;;;;10233386;28;20252;-83
2021/10/18 12:14:08;;;;;;;23.83;21.33;;;13.00;99.90;;;;;;10242831;28;20237;-83
2021/10/18 12:19:10;;;;;;;25.77;23.30;;;13.00;99.90;;;;;;10225597;28;20205;-83
2021/10/18 12:24:15;;;;;;;24.20;21.77;;;13.10;99.90;;;;;;10229129;28;20696;-83
2021/10/18 12:29:20;;;;;;;22.53;20.20;;;13.10;99.90;;;;;;10218843;29;20215;-84
2021/10/18 12:34:27;;;;;;;25.10;22.40;;;13.20;99.90;;;;;;10236964;28;20594;-85
2021/10/18 12:39:42;;;;;;;22.63;20.40;;;13.30;99.90;;;;;;10241845;29;20228;-85
2021/10/18 12:44:47;;;;;;;22.03;19.90;;;13.30;99.90;;;;;;10227016;28;20284;-84
2021/10/18 12:49:53;;;;;;;22.60;20.20;;;13.30;99.90;;;;;;10227677;28;20661;-84
2021/10/18 12:54:56;;;;;;;20.40;18.40;;;13.40;99.90;;;;;;10240644;28;20299;-84
2021/10/18 13:00:07;;;;;;;21.50;19.20;;;13.50;99.90;;;;;;10212042;29;20205;-84
2021/10/18 13:05:12;;;;;;;21.10;19.03;;;13.60;99.90;;;;;;10187179;29;20296;-84
2021/10/18 13:10:15;;;;;;;20.20;18.20;;;13.70;99.90;;;;;;10186749;29;20202;-84
2021/10/18 13:15:19;;;;;;;19.80;17.60;;;13.80;99.90;;;;;;10186204;29;20713;-84
2021/10/18 13:20:24;;;;;;;20.93;18.70;;;13.90;99.90;;;;;;10187853;29;20208;-84
2021/10/18 13:25:27;;;;;;;19.20;17.33;;;13.90;99.90;;;;;;10185708;29;20240;-84
2021/10/18 13:30:31;;;;;;;19.13;17.33;;;14.00;99.90;;;;;;10186532;29;20662;-84
2021/10/18 13:35:34;;;;;;;19.93;17.40;;;14.10;99.90;;;;;;10185301;29;20232;-84
2021/10/18 13:40:39;;;;;;;18.87;17.03;;;14.10;99.90;;;;;;10187150;29;20209;-84
2021/10/18 13:45:42;;;;;;;19.77;17.87;;;14.10;99.90;;;;;;10202853;29;20225;-84
2021/10/18 13:50:45;;;;;;;19.67;17.77;;;14.10;99.90;;;;;;10186920;29;20620;-84
2021/10/18 13:55:49;;;;;;;18.50;16.70;;;14.20;99.90;;;;;;10203010;29;20264;-84
2021/10/18 14:00:56;;;;;;;18.03;16.23;;;14.20;99.90;;;;;;10203379;29;20744;-86
2021/10/18 14:05:58;;;;;;;17.37;15.43;;;14.30;99.90;;;;;;10170542;29;20347;-85
2021/10/18 14:11:01;;;;;;;20.73;18.60;;;14.30;99.90;;;;;;10144488;29;20688;-85
2021/10/18 14:16:05;;;;;;;20.37;18.40;;;14.40;99.90;;;;;;10138796;29;20226;-85
2021/10/18 14:21:07;;;;;;;19.00;17.10;;;14.40;99.90;;;;;;10154737;29;20667;-85
2021/10/18 14:26:13;;;;;;;18.10;16.33;;;14.50;99.90;;;;;;10138454;29;20252;-85
2021/10/18 14:31:17;;;;;;;19.00;17.10;;;14.50;99.90;;;;;;10141024;29;20217;-85
2021/10/18 14:36:20;;;;;;;18.83;16.93;;;14.50;99.90;;;;;;10194515;29;20228;-85
2021/10/18 14:41:24;;;;;;;24.33;21.00;;;14.40;99.90;;;;;;10178304;29;20209;-85
2021/10/18 14:46:56;;;;;;;19.50;17.43;;;14.40;99.90;;;;;;10193157;29;20238;-85
2021/10/18 14:52:00;;;;;;;18.67;16.80;;;14.40;99.90;;;;;;10179753;29;20301;-85
2021/10/18 14:57:02;;;;;;;19.27;17.37;;;14.30;99.90;;;;;;10193351;29;20221;-85
2021/10/18 15:02:05;;;;;;;17.30;15.70;;;14.30;99.90;;;;;;10177639;29;20307;-85
2021/10/18 15:07:09;;;;;;;16.40;14.70;;;14.30;99.90;;;;;;10178235;29;20697;-85
2021/10/18 15:12:11;;;;;;;14.60;13.30;;;14.20;99.90;;;;;;10176728;29;20626;-85
2021/10/18 15:17:13;;;;;;;13.20;12.00;;;14.20;99.90;;;;;;10177210;29;20228;-85
2021/10/18 15:22:18;;;;;;;14.03;12.73;;;14.10;99.90;;;;;;10177505;29;20224;-85
2021/10/18 15:27:21;;;;;;;13.10;12.00;;;14.10;99.90;;;;;;10184362;29;20245;-85
2021/10/18 15:32:24;;;;;;;12.23;10.83;;;14.00;99.90;;;;;;10184973;29;20213;-85
2021/10/18 15:37:31;;;;;;;13.70;11.87;;;13.90;99.90;;;;;;10200418;29;20217;-85
2021/10/18 15:42:33;;;;;;;12.27;10.97;;;13.80;99.90;;;;;;10205206;29;20196;-85
2021/10/18 15:47:36;;;;;;;13.67;12.27;;;13.70;99.90;;;;;;10235996;28;20245;-85
2021/10/18 15:52:43;;;;;;;13.73;12.27;;;13.60;99.90;;;;;;10223727;29;20226;-86
2021/10/18 15:57:45;;;;;;;12.37;11.17;;;13.40;99.90;;;;;;10223726;28;20291;-86
2021/10/18 16:09:07;;;;;;;16.63;14.87;;;13.20;99.90;;;;;;10197898;29;20276;-86
2021/10/18 16:14:12;;;;;;;18.87;15.63;;;13.20;99.90;;;;;;10183376;29;20233;-86
2021/10/18 16:19:14;;;;;;;16.33;14.53;;;13.10;99.90;;;;;;10200370;29;20216;-86
2021/10/18 16:24:20;;;;;;;17.30;15.60;;;13.10;99.90;;;;;;10200361;29;20296;-86
2021/10/18 16:29:55;;;;;;;16.03;14.43;;;13.00;99.90;;;;;;10183086;29;20309;-86
2021/10/18 16:47:10;;;;;;;17.10;15.50;;;12.80;99.90;;;;;;10209279;23;20320;-85
2021/10/18 16:52:12;;;;;;;17.50;14.47;;;12.80;99.90;;;;;;10177651;29;20236;-85
2021/10/18 16:57:16;;;;;;;19.97;16.63;;;12.70;99.90;;;;;;10191449;29;20205;-86
2021/10/18 17:02:18;;;;;;;19.63;15.83;;;12.70;99.90;;;;;;10183617;29;20229;-84
2021/10/18 17:07:20;;;;;;;17.07;15.27;;;12.60;99.90;;;;;;10199869;29;20717;-86
2021/10/18 17:12:24;;;;;;;15.80;14.13;;;12.50;99.90;;;;;;10193309;29;20256;-85
2021/10/18 17:17:26;;;;;;;18.40;16.50;;;12.50;99.90;;;;;;10192826;29;20224;-84
2021/10/18 17:22:29;;;;;;;15.33;13.73;;;12.50;99.90;;;;;;10184897;29;20236;-85
2021/10/18 17:27:32;;;;;;;16.63;12.90;;;12.40;99.90;;;;;;10189504;29;20232;-83
2021/10/18 17:32:35;;;;;;;14.53;13.13;;;12.40;99.90;;;;;;10184588;29;20221;-85
2021/10/18 17:37:38;;;;;;;15.07;13.67;;;12.40;99.90;;;;;;10163079;29;20256;-84
2021/10/18 17:42:41;;;;;;;14.80;13.20;;;12.40;99.90;;;;;;10172205;29;20220;-84
2021/10/18 17:47:45;;;;;;;14.10;12.80;;;12.30;99.90;;;;;;10179300;29;20233;-83
2021/10/18 17:52:49;;;;;;;13.60;12.20;;;12.30;99.90;;;;;;10199182;29;20272;-85
2021/10/18 17:57:52;;;;;;;23.53;21.00;;;12.30;99.90;;;;;;10194546;29;20285;-85
2021/10/18 18:02:55;;;;;;;14.37;13.07;;;12.30;99.90;;;;;;10174563;29;20776;-84
2021/10/18 18:07:57;;;;;;;12.93;11.83;;;12.30;99.90;;;;;;10177270;29;20748;-84
2021/10/18 18:13:00;;;;;;;11.80;10.80;;;12.20;99.90;;;;;;10178242;29;20253;-84
2021/10/18 18:18:03;;;;;;;12.07;10.97;;;12.20;99.90;;;;;;10174127;29;20244;-83
2021/10/18 18:23:05;;;;;;;11.63;10.53;;;12.20;99.90;;;;;;10197353;29;20218;-84
2021/10/18 18:28:09;;;;;;;11.40;10.30;;;12.20;99.90;;;;;;10179885;29;20272;-83
2021/10/18 18:33:11;;;;;;;11.90;10.80;;;12.10;99.90;;;;;;10172545;29;20265;-84
2021/10/18 18:38:14;;;;;;;12.93;11.67;;;12.10;99.90;;;;;;10164036;29;20657;-83
2021/10/18 18:43:19;;;;;;;16.33;14.70;;;12.10;99.90;;;;;;10165283;29;20213;-84
2021/10/18 18:48:24;;;;;;;15.23;13.73;;;12.00;99.90;;;;;;10165941;29;20652;-84
2021/10/18 18:53:27;;;;;;;14.30;12.83;;;12.00;99.90;;;;;;10177899;29;20232;-84
2021/10/18 18:58:30;;;;;;;19.97;17.90;;;11.90;99.90;;;;;;10188707;29;20229;-84
2021/10/18 19:03:34;;;;;;;20.03;18.10;;;11.90;99.90;;;;;;10206474;29;20209;-85
2021/10/18 19:08:37;;;;;;;18.70;16.80;;;11.90;99.90;;;;;;10210995;29;20257;-84
2021/10/18 19:13:40;;;;;;;18.23;16.53;;;11.80;99.90;;;;;;10189548;29;20202;-85
2021/10/18 19:18:43;;;;;;;18.53;16.80;;;11.80;99.90;;;;;;10174530;29;20712;-84
2021/10/18 19:23:46;;;;;;;20.47;18.60;;;11.80;99.90;;;;;;10173911;29;20218;-84
2021/10/18 19:28:50;;;;;;;20.03;18.03;;;11.70;99.90;;;;;;10184336;29;20229;-84
2021/10/18 19:33:52;;;;;;;21.10;18.80;;;11.70;99.90;;;;;;10183615;29;20608;-84
2021/10/18 19:38:55;;;;;;;20.90;18.80;;;11.70;99.90;;;;;;10174721;29;20656;-83
2021/10/18 19:44:03;;;;;;;21.77;19.67;;;11.60;99.90;;;;;;10192617;29;20198;-83
2021/10/18 19:49:10;;;;;;;22.90;20.50;;;11.60;99.90;;;;;;10163245;29;20236;-84
2021/10/18 19:54:12;;;;;;;21.70;19.50;;;11.50;99.90;;;;;;10178906;29;20226;-84
2021/10/18 19:59:15;;;;;;;21.03;19.03;;;11.60;99.90;;;;;;10160423;29;20596;-84
2021/10/18 20:04:17;;;;;;;22.60;20.30;;;11.60;99.90;;;;;;10160894;29;20233;-84
2021/10/18 20:09:20;;;;;;;22.87;20.40;;;11.60;99.90;;;;;;10162745;29;20237;-84
2021/10/18 20:14:23;;;;;;;21.03;18.70;;;11.60;99.90;;;;;;10161251;29;20232;-84
2021/10/18 20:19:27;;;;;;;20.57;18.57;;;11.60;99.90;;;;;;10177168;29;20194;-85
2021/10/18 20:24:31;;;;;;;19.70;17.80;;;11.60;99.90;;;;;;10178983;29;20245;-84
2021/10/18 20:29:34;;;;;;;21.50;19.23;;;11.50;99.90;;;;;;10178846;29;20297;-85
2021/10/18 20:34:38;;;;;;;21.60;18.97;;;11.50;99.90;;;;;;10177195;29;20266;-84
2021/10/18 20:39:40;;;;;;;21.93;19.63;;;11.50;99.90;;;;;;10193363;29;20194;-85
2021/10/18 20:44:43;;;;;;;19.80;17.80;;;11.50;99.90;;;;;;10194941;29;20242;-83
2021/10/18 20:49:46;;;;;;;21.20;18.97;;;11.40;99.90;;;;;;10167739;29;20237;-84
2021/10/18 20:54:48;;;;;;;22.27;20.00;;;11.50;99.90;;;;;;10144960;29;20233;-84
2021/10/18 20:59:52;;;;;;;19.97;17.90;;;11.50;99.90;;;;;;10135442;29;20226;-83
2021/10/18 21:04:54;;;;;;;23.23;20.60;;;11.60;99.90;;;;;;10158371;29;20221;-84
2021/10/18 21:09:56;;;;;;;22.20;19.53;;;11.60;99.90;;;;;;10179357;29;20273;-85
2021/10/18 21:15:01;;;;;;;19.47;17.57;;;11.60;99.90;;;;;;10148689;29;20710;-84
2021/10/18 21:20:03;;;;;;;20.40;18.33;;;11.60;99.90;;;;;;10147998;29;20611;-83
2021/10/18 21:25:07;;;;;;;19.87;17.87;;;11.60;99.90;;;;;;10148256;29;20239;-84
2021/10/18 21:30:12;;;;;;;19.97;17.97;;;11.60;99.90;;;;;;10148927;29;20226;-84
2021/10/18 21:35:14;;;;;;;19.67;16.90;;;11.60;99.90;;;;;;10146025;29;20316;-83
2021/10/18 21:40:16;;;;;;;19.17;17.30;;;11.50;99.90;;;;;;10147547;29;20730;-83
2021/10/18 21:45:22;;;;;;;20.07;18.17;;;11.50;99.90;;;;;;10153496;29;20757;-83
2021/10/18 21:50:24;;;;;;;20.27;18.27;;;11.30;99.90;;;;;;10144448;29;20699;-83
2021/10/18 21:55:26;;;;;;;21.43;17.53;;;11.30;99.90;;;;;;10145088;29;20222;-83
2021/10/18 22:00:36;;;;;;;20.07;17.67;;;11.20;99.90;;;;;;10145690;29;20217;-83
2021/10/18 22:05:38;;;;;;;19.27;17.20;;;11.20;99.90;;;;;;10146048;29;20233;-83
2021/10/18 22:10:41;;;;;;;23.10;19.37;;;11.20;99.90;;;;;;10135513;29;20293;-83
2021/10/18 22:15:44;;;;;;;20.70;17.90;;;11.10;99.90;;;;;;10172323;29;20222;-83
2021/10/18 22:20:46;;;;;;;19.37;17.40;;;11.10;99.90;;;;;;10171084;29;20284;-83
2021/10/18 22:25:49;;;;;;;19.23;17.40;;;11.00;99.90;;;;;;10153320;29;20221;-84
2021/10/18 22:30:54;;;;;;;18.37;16.53;;;11.10;99.90;;;;;;10160867;29;20682;-83
2021/10/18 22:35:57;;;;;;;22.07;18.73;;;11.00;99.90;;;;;;10175158;29;20277;-83
2021/10/18 22:40:59;;;;;;;18.47;16.57;;;11.00;99.90;;;;;;10144510;29;20195;-83
2021/10/18 22:46:03;;;;;;;20.00;18.00;;;10.90;99.90;;;;;;10130182;29;20257;-84
2021/10/18 22:51:05;;;;;;;19.03;17.03;;;10.80;99.90;;;;;;10126570;29;20226;-83
2021/10/18 22:56:07;;;;;;;18.10;16.27;;;10.80;99.90;;;;;;10126828;29;20710;-83
2021/10/18 23:01:11;;;;;;;19.00;17.00;;;10.70;99.90;;;;;;10123016;29;20206;-83
2021/10/18 23:06:13;;;;;;;21.37;16.50;;;10.70;99.90;;;;;;10129331;29;20281;-85
2021/10/18 23:11:15;;;;;;;17.07;15.30;;;10.70;99.90;;;;;;10138967;29;20622;-84
2021/10/18 23:16:20;;;;;;;17.00;15.47;;;10.70;99.90;;;;;;10128496;29;20699;-85
2021/10/18 23:21:22;;;;;;;16.40;14.97;;;10.70;99.90;;;;;;10143405;29;20606;-84
2021/10/18 23:26:24;;;;;;;17.47;15.87;;;10.80;99.90;;;;;;10139184;29;20236;-84
2021/10/18 23:31:28;;;;;;;16.50;15.00;;;10.80;99.90;;;;;;10139755;29;20301;-83
2021/10/18 23:36:30;;;;;;;16.27;14.67;;;10.80;99.90;;;;;;10139399;29;20261;-84
2021/10/18 23:41:32;;;;;;;17.53;15.30;;;10.70;99.90;;;;;;10139445;29;20237;-84
2021/10/18 23:46:35;;;;;;;16.43;14.87;;;10.80;99.90;;;;;;10143014;29;20229;-84
2021/10/18 23:51:37;;;;;;;16.60;14.60;;;10.80;99.90;;;;;;10162957;29;20202;-84
2021/10/18 23:56:40;;;;;;;14.63;13.37;;;10.80;99.90;;;;;;10145882;29;20230;-83
